Cascade, Iowa
Current Conditions -  °F | °C
As of 1:15 AM on Saturday 29 Nov 2014 (Local Time) from KMXO Reporting Station
Clear Clear  
Wind Chill: -4°   Ceiling: Unl
Heat Index:   Visibility: 7mi
Dew Point: -1°   Wind: 9mph
Humidity: 93%   Direction: 120°ESE
Pressure: 29.69"   Gusts: NA
Location:  42.3°N, 91.01°W
Report Text: KMXO 290715Z AUTO 12008KT 7SM CLR M00/M01 A2969 RMK AO2
Loading
Personal Weather Stations






























Interactive Weather Map New forecast layout! Learn more

10-Day Weather Forecast

Advertisements
Track Severe Weather on mobile